Time;durP1;ratioP1;P1;durP2;ratioP2;P2;SDS_P1;SDS_P2;PMS_P1;PMS_P2;Temp;Humidity;BMP_temperature;BMP_pressure;BME280_temperature;BME280_humidity;BME280_pressure;Samples;Min_cycle;Max_cycle;Signal;HPM_P1;HPM_P2
2023/01/11 00:00:28;;;;;;;0.47;0.30;;;18.10;67.70;;;;;;5026146;28;47689;-74
2023/01/11 00:02:56;;;;;;;0.45;0.20;;;18.10;67.70;;;;;;5025789;28;45209;-75
2023/01/11 00:05:23;;;;;;;0.98;0.30;;;18.10;67.70;;;;;;5026606;28;45129;-74
2023/01/11 00:07:51;;;;;;;0.80;0.32;;;18.10;67.70;;;;;;5026454;28;45606;-75
2023/01/11 00:10:19;;;;;;;0.43;0.40;;;18.10;67.60;;;;;;5025555;28;46449;-75
2023/01/11 00:12:46;;;;;;;0.40;0.20;;;18.10;67.60;;;;;;5025891;28;45132;-74
2023/01/11 00:15:14;;;;;;;1.02;0.40;;;18.10;67.50;;;;;;5026099;28;45303;-75
2023/01/11 00:21:04;;;;;;;0.75;0.30;;;18.10;67.60;;;;;;5022781;28;45308;-75
2023/01/11 00:23:32;;;;;;;0.98;0.43;;;18.20;67.70;;;;;;5025460;28;45214;-75
2023/01/11 00:25:59;;;;;;;1.38;0.45;;;18.10;67.50;;;;;;5025908;28;45251;-75
2023/01/11 00:28:26;;;;;;;0.40;0.30;;;18.10;67.60;;;;;;5025860;28;45108;-75
2023/01/11 00:30:52;;;;;;;1.10;0.45;;;18.20;69.00;;;;;;5025467;28;46668;-75
2023/01/11 00:33:19;;;;;;;0.77;0.30;;;18.20;69.00;;;;;;5025731;28;46120;-76
2023/01/11 00:35:46;;;;;;;0.30;0.30;;;18.20;69.10;;;;;;5025798;28;45211;-75
2023/01/11 00:38:42;;;;;;;1.23;0.30;;;18.30;69.10;;;;;;5025871;28;45140;-75
2023/01/11 00:47:55;;;;;;;0.63;0.30;;;18.20;69.10;;;;;;5025141;28;45327;-75
2023/01/11 00:49:16;;;;;;;1.80;0.30;;;18.20;69.00;;;;;;5023933;28;45132;-75
2023/01/11 00:51:42;;;;;;;0.20;0.13;;;18.30;69.10;;;;;;5025434;28;47672;-75
2023/01/11 00:54:09;;;;;;;1.05;0.47;;;18.20;69.00;;;;;;5025292;28;45176;-75
2023/01/11 00:56:37;;;;;;;0.20;0.20;;;18.30;69.10;;;;;;5025878;28;45157;-75
2023/01/11 00:59:04;;;;;;;0.38;0.30;;;18.30;69.10;;;;;;5025605;28;45177;-75
2023/01/11 01:01:31;;;;;;;0.20;0.20;;;18.30;69.20;;;;;;5025742;28;46241;-75
2023/01/11 01:04:00;;;;;;;0.55;0.30;;;18.30;69.10;;;;;;5028633;28;45222;-75
2023/01/11 01:06:28;;;;;;;0.63;0.45;;;18.30;69.20;;;;;;5028945;28;45257;-75
2023/01/11 01:08:55;;;;;;;0.68;0.25;;;18.20;69.10;;;;;;5028794;28;45153;-75
2023/01/11 01:11:22;;;;;;;0.43;0.30;;;18.20;69.10;;;;;;5028627;28;47856;-75
2023/01/11 01:16:41;;;;;;;0.80;0.30;;;18.20;68.90;;;;;;5012793;28;45200;-75
2023/01/11 01:19:09;;;;;;;0.43;0.30;;;18.20;69.00;;;;;;5028585;28;45468;-75
2023/01/11 01:21:36;;;;;;;0.22;0.20;;;18.20;69.00;;;;;;5028897;28;47632;-75
2023/01/11 01:27:25;;;;;;;0.93;0.38;;;18.20;69.00;;;;;;5025708;28;45108;-75
2023/01/11 01:29:53;;;;;;;0.63;0.52;;;18.20;69.00;;;;;;5028935;28;45228;-74
2023/01/11 01:32:20;;;;;;;1.38;0.20;;;18.20;69.00;;;;;;5028331;28;46592;-75
2023/01/11 01:34:47;;;;;;;0.20;0.20;;;18.20;69.00;;;;;;5030037;28;45137;-74
2023/01/11 01:37:14;;;;;;;0.60;0.30;;;18.20;69.00;;;;;;5028630;28;45070;-75
2023/01/11 01:43:03;;;;;;;0.52;0.30;;;18.20;68.90;;;;;;5025161;28;45119;-75
2023/01/11 01:45:31;;;;;;;0.40;0.20;;;18.30;69.10;;;;;;5027976;28;45164;-75
2023/01/11 01:48:00;;;;;;;0.80;0.35;;;18.30;69.10;;;;;;5028487;28;45279;-75
2023/01/11 01:50:31;;;;;;;0.68;0.20;;;18.20;69.00;;;;;;5028011;28;45714;-75
2023/01/11 01:53:02;;;;;;;0.38;0.15;;;18.20;69.00;;;;;;5028299;28;47092;-75
2023/01/11 01:55:33;;;;;;;0.75;0.20;;;18.20;68.90;;;;;;5028023;28;45756;-75
2023/01/11 01:58:02;;;;;;;0.40;0.30;;;18.30;69.10;;;;;;5028116;28;45303;-75
2023/01/11 02:00:29;;;;;;;0.30;0.20;;;18.20;69.00;;;;;;5028040;28;45069;-75
2023/01/11 02:02:59;;;;;;;0.30;0.20;;;18.30;69.10;;;;;;5027737;28;45399;-75
2023/01/11 02:05:25;;;;;;;0.75;0.20;;;18.20;69.00;;;;;;5027865;28;46431;-75
2023/01/11 02:07:55;;;;;;;0.45;0.28;;;18.20;69.00;;;;;;5027845;28;45174;-75
2023/01/11 02:10:22;;;;;;;0.30;0.17;;;18.20;69.00;;;;;;5027910;28;45326;-76
2023/01/11 02:12:52;;;;;;;1.02;0.20;;;18.20;69.10;;;;;;5027490;28;46908;-75
2023/01/11 02:15:22;;;;;;;0.90;0.20;;;18.20;69.10;;;;;;5027232;28;45220;-75
2023/01/11 02:17:49;;;;;;;0.75;0.20;;;18.20;69.10;;;;;;5027220;28;45236;-75
2023/01/11 02:20:31;;;;;;;0.45;0.20;;;18.20;69.10;;;;;;5027782;28;45132;-75
2023/01/11 02:23:34;;;;;;;0.20;0.10;;;18.20;69.10;;;;;;5027606;28;47602;-75
2023/01/11 02:29:30;;;;;;;0.25;0.20;;;18.20;69.10;;;;;;5024570;28;45163;-75
2023/01/11 02:32:11;;;;;;;0.57;0.20;;;18.20;69.10;;;;;;5027845;28;45124;-75
2023/01/11 02:38:06;;;;;;;0.20;0.20;;;18.20;69.10;;;;;;5024410;28;45171;-75
2023/01/11 02:40:41;;;;;;;0.40;0.20;;;18.20;69.20;;;;;;5027532;28;45318;-75
2023/01/11 02:46:05;;;;;;;0.90;0.30;;;18.20;69.20;;;;;;5027573;28;45369;-75
2023/01/11 02:48:37;;;;;;;0.10;0.10;;;18.30;69.40;;;;;;5027184;28;45352;-75
2023/01/11 02:51:08;;;;;;;0.10;0.10;;;18.30;69.40;;;;;;5026888;28;45235;-75
2023/01/11 02:57:00;;;;;;;0.75;0.20;;;18.30;69.50;;;;;;5023946;28;45609;-75
2023/01/11 02:59:31;;;;;;;0.05;0.05;;;18.20;69.40;;;;;;5027398;28;45083;-76
2023/01/11 03:01:59;;;;;;;0.20;0.10;;;18.20;69.40;;;;;;5024055;28;45251;-75
2023/01/11 03:04:28;;;;;;;0.10;0.10;;;18.20;69.40;;;;;;5027397;28;45116;-75
2023/01/11 03:07:10;;;;;;;0.10;0.10;;;18.30;69.50;;;;;;5026987;28;47266;-75
2023/01/11 03:09:50;;;;;;;0.25;0.10;;;18.30;69.60;;;;;;5026877;28;45110;-75
2023/01/11 03:15:52;;;;;;;0.20;0.20;;;18.30;69.60;;;;;;5024015;28;45199;-75
2023/01/11 03:18:39;;;;;;;0.30;0.17;;;18.20;69.60;;;;;;5026415;28;45398;-75
2023/01/11 03:21:20;;;;;;;0.10;0.10;;;18.20;69.50;;;;;;5026728;28;45850;-75
2023/01/11 03:23:55;;;;;;;0.52;0.20;;;18.20;69.60;;;;;;5026745;28;45317;-75
2023/01/11 03:26:29;;;;;;;0.57;0.20;;;18.20;69.60;;;;;;5026770;28;45361;-75
2023/01/11 03:29:05;;;;;;;0.10;0.10;;;18.20;69.60;;;;;;5026336;28;46576;-75
2023/01/11 03:31:35;;;;;;;0.22;0.10;;;18.20;69.60;;;;;;5026506;28;45837;-76
2023/01/11 03:37:33;;;;;;;0.00;0.00;;;18.20;69.60;;;;;;5023655;28;45163;-75
2023/01/11 03:40:06;;;;;;;0.13;0.10;;;18.30;69.80;;;;;;5026701;28;47658;-75
2023/01/11 03:43:09;;;;;;;0.88;0.30;;;18.20;69.70;;;;;;5026492;28;45195;-75
2023/01/11 03:45:22;;;;;;;0.52;0.20;;;18.20;69.60;;;;;;5025999;28;45316;-75
2023/01/11 03:47:52;;;;;;;0.75;0.28;;;18.20;69.60;;;;;;5026455;28;45259;-75
2023/01/11 03:50:19;;;;;;;0.10;0.10;;;18.30;69.80;;;;;;5025833;28;48614;-75
2023/01/11 03:52:50;;;;;;;0.35;0.10;;;18.20;69.70;;;;;;5026200;28;45244;-75
2023/01/11 03:55:17;;;;;;;0.30;0.10;;;18.20;69.80;;;;;;5026505;28;45447;-76
2023/01/11 03:57:50;;;;;;;0.10;0.10;;;18.20;69.70;;;;;;5026130;28;45215;-75
2023/01/11 04:00:18;;;;;;;0.20;0.00;;;18.20;69.80;;;;;;5025759;28;46548;-75
2023/01/11 04:02:45;;;;;;;0.10;0.10;;;18.30;70.00;;;;;;5026364;28;45155;-75
2023/01/11 04:05:12;;;;;;;0.35;0.15;;;18.20;69.90;;;;;;5026645;28;45318;-75
2023/01/11 04:07:38;;;;;;;0.30;0.20;;;18.20;69.90;;;;;;5026216;28;45406;-75
2023/01/11 04:10:08;;;;;;;0.20;0.10;;;18.20;69.90;;;;;;5026114;28;47321;-75
2023/01/11 04:12:35;;;;;;;0.28;0.15;;;18.30;70.00;;;;;;5025616;28;45380;-76
2023/01/11 04:15:04;;;;;;;0.45;0.20;;;18.20;70.00;;;;;;5025726;28;45226;-76
2023/01/11 04:20:52;;;;;;;0.65;0.10;;;18.30;70.10;;;;;;5022848;28;45153;-76
2023/01/11 04:23:19;;;;;;;0.40;0.10;;;18.20;70.00;;;;;;5025963;28;45664;-76
2023/01/11 04:25:47;;;;;;;0.45;0.20;;;18.20;70.00;;;;;;5025889;28;45125;-76
2023/01/11 04:32:02;;;;;;;0.10;0.08;;;18.30;70.10;;;;;;5025862;28;45873;-76
2023/01/11 04:34:29;;;;;;;0.05;0.05;;;18.30;70.10;;;;;;5025463;28;45200;-76
2023/01/11 04:40:19;;;;;;;0.52;0.13;;;18.30;70.10;;;;;;5026503;28;45130;-76
2023/01/11 04:42:46;;;;;;;0.30;0.20;;;18.30;70.10;;;;;;5029271;28;47480;-76
2023/01/11 04:45:13;;;;;;;0.28;0.20;;;18.30;70.20;;;;;;5028823;28;45607;-76
2023/01/11 04:47:40;;;;;;;0.08;0.00;;;18.30;70.20;;;;;;5029030;28;45228;-76
2023/01/11 04:50:10;;;;;;;0.30;0.10;;;18.30;70.30;;;;;;5029148;28;45104;-76
2023/01/11 04:52:39;;;;;;;0.15;0.03;;;18.30;70.30;;;;;;5028601;28;45782;-75
2023/01/11 04:55:06;;;;;;;0.20;0.00;;;18.30;70.30;;;;;;5028830;28;45346;-75
2023/01/11 04:57:33;;;;;;;0.32;0.10;;;18.30;70.30;;;;;;5029007;28;45265;-75
2023/01/11 05:00:07;;;;;;;0.17;0.10;;;18.20;70.10;;;;;;5029152;28;45236;-76
2023/01/11 05:02:36;;;;;;;0.30;0.00;;;18.30;70.30;;;;;;5029086;28;45699;-76
2023/01/11 05:05:04;;;;;;;0.10;0.10;;;18.20;70.10;;;;;;5028688;28;45230;-75
2023/01/11 05:07:33;;;;;;;0.30;0.10;;;18.30;70.30;;;;;;5029132;28;45249;-76
2023/01/11 05:10:02;;;;;;;0.08;0.05;;;18.30;70.30;;;;;;5028809;28;45544;-76
2023/01/11 05:12:30;;;;;;;0.17;0.17;;;18.30;70.30;;;;;;5028554;28;45692;-76
2023/01/11 05:14:58;;;;;;;0.20;0.10;;;18.30;70.40;;;;;;5028311;28;45118;-76
2023/01/11 05:17:29;;;;;;;0.25;0.10;;;18.20;70.20;;;;;;5028279;28;45362;-76
2023/01/11 05:19:57;;;;;;;0.75;0.05;;;18.20;70.30;;;;;;5028526;28;45224;-76
2023/01/11 05:22:24;;;;;;;0.45;0.03;;;18.20;70.40;;;;;;5028431;28;46352;-76
2023/01/11 05:24:53;;;;;;;0.00;0.00;;;18.30;70.50;;;;;;5028137;28;45127;-76
2023/01/11 05:27:21;;;;;;;0.57;0.10;;;18.30;70.50;;;;;;5028264;28;45379;-75
2023/01/11 05:29:49;;;;;;;0.00;0.00;;;18.20;70.40;;;;;;5028451;28;45293;-76
2023/01/11 05:32:16;;;;;;;0.00;0.00;;;18.30;70.50;;;;;;5028256;28;47221;-75
2023/01/11 05:34:47;;;;;;;0.10;0.00;;;18.20;70.50;;;;;;5028011;28;46647;-76
2023/01/11 05:37:14;;;;;;;0.20;0.10;;;18.30;70.60;;;;;;5028210;28;45161;-76
2023/01/11 05:39:43;;;;;;;0.30;0.10;;;18.30;70.60;;;;;;5028574;28;45289;-76
2023/01/11 05:42:11;;;;;;;0.05;0.05;;;18.30;70.60;;;;;;5027716;28;46028;-76
2023/01/11 05:47:24;;;;;;;0.20;0.15;;;18.30;70.60;;;;;;5028747;28;45358;-76
2023/01/11 05:49:54;;;;;;;0.15;0.00;;;18.30;70.70;;;;;;5026820;28;45094;-76
2023/01/11 05:52:22;;;;;;;0.03;0.00;;;18.30;70.70;;;;;;5027926;28;45984;-75
2023/01/11 05:54:50;;;;;;;0.00;0.00;;;18.30;70.70;;;;;;5028306;28;45129;-76
2023/01/11 05:57:19;;;;;;;0.00;0.00;;;18.30;70.80;;;;;;5028119;28;45306;-76
2023/01/11 05:59:47;;;;;;;0.52;0.10;;;18.30;70.80;;;;;;5028076;28;45562;-76
2023/01/11 06:02:15;;;;;;;0.00;0.00;;;18.30;70.80;;;;;;5027484;28;45819;-77
2023/01/11 06:04:42;;;;;;;0.32;0.20;;;18.30;70.80;;;;;;5027815;28;45127;-76
2023/01/11 06:07:11;;;;;;;0.70;0.10;;;18.30;70.80;;;;;;5027950;28;45215;-75
2023/01/11 06:09:39;;;;;;;0.43;0.10;;;18.30;70.80;;;;;;5027564;28;45441;-76
2023/01/11 06:12:06;;;;;;;0.10;0.10;;;18.30;70.80;;;;;;5027570;28;47966;-76
2023/01/11 06:14:34;;;;;;;0.00;0.00;;;18.30;70.90;;;;;;5028034;28;45327;-76
2023/01/11 06:17:02;;;;;;;0.05;0.05;;;18.30;70.90;;;;;;5027407;28;45539;-75
2023/01/11 06:19:30;;;;;;;0.00;0.00;;;18.30;70.80;;;;;;5027419;28;45306;-76
2023/01/11 06:21:58;;;;;;;0.10;0.05;;;18.30;71.00;;;;;;5027175;28;45489;-76
2023/01/11 06:27:51;;;;;;;1.27;0.20;;;18.30;70.90;;;;;;5024712;28;45197;-76
2023/01/11 06:33:40;;;;;;;0.38;0.10;;;18.20;70.90;;;;;;5024408;28;45797;-74
2023/01/11 06:36:09;;;;;;;0.00;0.00;;;18.20;71.00;;;;;;5027082;28;45473;-74
2023/01/11 06:38:36;;;;;;;0.15;0.03;;;18.20;71.10;;;;;;5027355;28;45217;-74
2023/01/11 06:41:07;;;;;;;0.00;0.00;;;18.20;71.40;;;;;;5027333;28;45218;-73
2023/01/11 06:43:36;;;;;;;0.10;0.10;;;18.20;71.30;;;;;;5027138;28;49088;-74
2023/01/11 06:52:53;;;;;;;0.00;0.00;;;18.10;71.60;;;;;;5024405;28;45396;-74
2023/01/11 06:55:20;;;;;;;0.30;0.03;;;18.10;71.80;;;;;;5026972;28;45203;-74
2023/01/11 06:57:47;;;;;;;0.17;0.03;;;18.10;71.70;;;;;;5026934;28;45143;-74
2023/01/11 07:00:16;;;;;;;0.88;0.10;;;18.10;71.70;;;;;;5026807;28;45319;-74
2023/01/11 07:02:43;;;;;;;0.73;0.13;;;18.10;71.80;;;;;;5027134;28;45431;-75
2023/01/11 07:05:10;;;;;;;0.20;0.10;;;18.10;72.00;;;;;;5026516;28;46589;-74
2023/01/11 07:07:37;;;;;;;0.52;0.10;;;18.10;72.10;;;;;;5026810;28;45303;-74
2023/01/11 07:10:06;;;;;;;0.73;0.20;;;18.10;72.50;;;;;;5026965;28;45091;-74
2023/01/11 07:12:33;;;;;;;0.20;0.10;;;18.10;72.40;;;;;;5026906;28;45637;-73
2023/01/11 07:15:00;;;;;;;0.00;0.00;;;18.10;72.20;;;;;;5026525;28;47457;-73
2023/01/11 07:17:28;;;;;;;0.13;0.10;;;18.10;72.30;;;;;;5026414;28;45248;-73
2023/01/11 07:19:55;;;;;;;0.30;0.10;;;18.10;72.10;;;;;;5026690;28;45222;-74
2023/01/11 07:22:22;;;;;;;0.50;0.10;;;18.10;72.20;;;;;;5026542;28;45619;-74
2023/01/11 07:24:49;;;;;;;0.15;0.10;;;18.10;72.10;;;;;;5026604;28;45396;-74
2023/01/11 07:30:39;;;;;;;0.40;0.20;;;18.10;72.20;;;;;;5023719;28;45279;-74
2023/01/11 07:33:09;;;;;;;0.65;0.10;;;18.10;72.10;;;;;;5026624;28;45219;-74
2023/01/11 07:35:35;;;;;;;0.30;0.20;;;18.10;72.10;;;;;;5026393;28;46548;-74
2023/01/11 07:38:06;;;;;;;0.17;0.17;;;18.10;72.10;;;;;;5026633;28;45248;-74
2023/01/11 07:40:35;;;;;;;0.38;0.10;;;18.10;72.10;;;;;;5026590;28;45222;-74
2023/01/11 07:43:10;;;;;;;0.00;0.00;;;18.10;72.10;;;;;;5026907;28;45243;-74
2023/01/11 07:45:39;;;;;;;0.15;0.10;;;18.10;72.10;;;;;;5026368;28;46353;-74
2023/01/11 07:48:09;;;;;;;0.35;0.20;;;18.10;72.30;;;;;;5026248;28;45304;-74
2023/01/11 07:50:38;;;;;;;0.20;0.10;;;18.10;72.20;;;;;;5026020;28;45200;-74
2023/01/11 07:53:05;;;;;;;0.43;0.10;;;18.10;72.30;;;;;;5026413;28;45210;-75
2023/01/11 07:55:32;;;;;;;1.75;0.20;;;18.10;72.20;;;;;;5026262;28;47489;-74
2023/01/11 07:57:59;;;;;;;0.65;0.10;;;18.20;72.10;;;;;;5026036;28;45325;-74
2023/01/11 08:00:26;;;;;;;0.10;0.10;;;18.20;72.20;;;;;;5026269;28;45211;-74
2023/01/11 08:02:53;;;;;;;2.72;0.10;;;18.20;72.10;;;;;;5026279;28;45235;-74
2023/01/11 08:05:22;;;;;;;0.00;0.00;;;18.20;72.20;;;;;;5025785;28;46290;-74
2023/01/11 08:07:49;;;;;;;0.30;0.20;;;18.20;72.20;;;;;;5025991;28;45300;-74
2023/01/11 08:10:16;;;;;;;0.47;0.15;;;18.20;72.20;;;;;;5026177;28;45081;-75
2023/01/11 08:15:29;;;;;;;0.17;0.10;;;18.20;72.10;;;;;;5026402;28;45763;-74
2023/01/11 08:21:20;;;;;;;0.85;0.20;;;18.20;72.00;;;;;;5022967;28;45274;-74
2023/01/11 08:23:46;;;;;;;0.40;0.15;;;18.20;72.10;;;;;;5026090;28;45182;-75
2023/01/11 08:26:16;;;;;;;0.10;0.05;;;18.20;72.30;;;;;;5025468;28;48134;-74
2023/01/11 08:28:43;;;;;;;0.47;0.13;;;18.20;72.40;;;;;;5026011;28;45268;-75
2023/01/11 08:31:10;;;;;;;1.10;0.40;;;18.20;72.40;;;;;;5025890;28;45333;-74
2023/01/11 08:33:37;;;;;;;1.15;0.35;;;18.20;72.50;;;;;;5025992;28;45259;-74
2023/01/11 08:36:05;;;;;;;1.83;0.40;;;18.20;72.40;;;;;;5025581;28;47342;-74
2023/01/11 08:38:34;;;;;;;1.00;0.20;;;18.20;72.50;;;;;;5025681;28;45914;-74
2023/01/11 08:41:01;;;;;;;1.65;0.20;;;18.20;72.50;;;;;;5025783;28;45370;-74
2023/01/11 08:43:30;;;;;;;0.77;0.20;;;18.10;72.40;;;;;;5025662;28;45501;-74
2023/01/11 08:45:57;;;;;;;0.98;0.22;;;18.20;72.50;;;;;;5025644;28;48198;-74
2023/01/11 08:48:24;;;;;;;0.60;0.25;;;18.10;72.60;;;;;;5025387;28;45218;-74
2023/01/11 08:50:52;;;;;;;0.55;0.25;;;18.10;72.70;;;;;;5025627;28;45231;-74
2023/01/11 08:53:19;;;;;;;1.98;0.28;;;18.10;72.70;;;;;;5025763;28;45276;-74
2023/01/11 08:55:49;;;;;;;0.40;0.40;;;18.10;72.70;;;;;;5025221;28;46282;-74
2023/01/11 08:58:16;;;;;;;1.50;0.73;;;18.10;72.60;;;;;;5025155;28;45332;-74
2023/01/11 09:00:43;;;;;;;1.13;0.10;;;18.10;72.80;;;;;;5025814;28;45262;-74
2023/01/11 09:03:11;;;;;;;0.20;0.20;;;18.10;72.70;;;;;;5025637;28;45161;-74
2023/01/11 09:05:39;;;;;;;1.00;0.20;;;18.10;72.80;;;;;;5025349;28;45306;-74
2023/01/11 09:08:07;;;;;;;1.85;0.28;;;18.10;72.70;;;;;;5025472;28;45690;-74
2023/01/11 09:10:34;;;;;;;2.13;0.30;;;18.10;72.60;;;;;;5025572;28;45282;-75
2023/01/11 09:13:03;;;;;;;0.70;0.20;;;18.10;72.70;;;;;;5025436;28;45265;-75
2023/01/11 09:15:30;;;;;;;0.35;0.28;;;18.20;72.70;;;;;;5025280;28;46706;-75
2023/01/11 09:17:57;;;;;;;0.93;0.40;;;18.10;72.60;;;;;;5025170;28;45224;-75
2023/01/11 09:20:24;;;;;;;1.73;0.25;;;18.10;72.60;;;;;;5025537;28;45086;-75
2023/01/11 09:22:52;;;;;;;0.20;0.20;;;18.10;72.60;;;;;;5028832;28;45133;-75
2023/01/11 09:25:20;;;;;;;1.17;0.28;;;18.20;72.70;;;;;;5028780;28;45215;-75
2023/01/11 09:27:47;;;;;;;2.15;0.30;;;18.10;72.60;;;;;;5028589;28;45249;-75
2023/01/11 09:30:18;;;;;;;1.23;0.30;;;18.10;72.50;;;;;;5028372;28;45159;-75
2023/01/11 09:32:45;;;;;;;2.03;0.40;;;18.10;72.50;;;;;;5028835;28;45515;-75
2023/01/11 09:35:14;;;;;;;0.98;0.38;;;18.10;72.40;;;;;;5028016;28;46377;-75
2023/01/11 09:37:44;;;;;;;0.77;0.40;;;18.10;72.40;;;;;;5028664;28;45156;-75
2023/01/11 09:40:17;;;;;;;1.00;0.50;;;18.10;72.30;;;;;;5028289;28;45377;-75
2023/01/11 09:42:46;;;;;;;1.17;0.20;;;18.10;72.30;;;;;;5025413;28;45231;-75
2023/01/11 09:45:18;;;;;;;2.08;0.40;;;18.10;72.30;;;;;;5028182;28;48375;-75
2023/01/11 09:47:48;;;;;;;0.68;0.30;;;18.10;72.20;;;;;;5028407;28;45172;-75
2023/01/11 09:50:18;;;;;;;0.85;0.30;;;18.20;72.20;;;;;;5028039;28;45277;-75
2023/01/11 09:52:50;;;;;;;0.50;0.25;;;18.10;73.30;;;;;;5028443;28;45203;-75
2023/01/11 09:55:23;;;;;;;1.48;0.82;;;18.10;72.20;;;;;;5028154;28;45133;-75
2023/01/11 10:01:17;;;;;;;0.98;0.38;;;18.20;72.20;;;;;;5025165;28;45303;-75
2023/01/11 10:04:27;;;;;;;0.65;0.30;;;18.20;72.20;;;;;;5027866;28;45227;-75
2023/01/11 10:07:14;;;;;;;0.77;0.38;;;18.20;72.20;;;;;;5027699;28;45728;-75
2023/01/11 10:09:49;;;;;;;2.83;0.73;;;18.20;72.20;;;;;;5028050;28;45500;-75
2023/01/11 10:12:22;;;;;;;1.50;0.47;;;18.30;72.40;;;;;;5027841;28;45130;-75
2023/01/11 10:15:03;;;;;;;1.08;0.60;;;18.20;72.20;;;;;;5027946;28;45308;-75
2023/01/11 10:17:41;;;;;;;2.75;0.43;;;18.20;72.10;;;;;;5026890;28;46426;-75
2023/01/11 10:20:23;;;;;;;1.58;0.55;;;18.30;72.20;;;;;;5027361;28;45376;-75
2023/01/11 10:22:55;;;;;;;1.95;0.40;;;18.20;72.10;;;;;;5027610;28;45254;-75
2023/01/11 10:25:27;;;;;;;2.63;0.52;;;18.20;72.10;;;;;;5027794;28;45433;-75
2023/01/11 10:27:59;;;;;;;2.88;0.40;;;18.20;72.00;;;;;;5027262;28;45433;-75
2023/01/11 10:30:47;;;;;;;2.70;0.65;;;18.30;72.20;;;;;;5027502;28;45609;-75
2023/01/11 10:33:45;;;;;;;1.95;0.50;;;18.20;72.00;;;;;;5027233;28;45377;-75
2023/01/11 10:36:33;;;;;;;1.58;0.57;;;18.30;72.10;;;;;;5027494;28;45287;-75
2023/01/11 10:39:16;;;;;;;1.30;0.50;;;18.30;72.10;;;;;;5027052;28;46576;-75
2023/01/11 10:41:53;;;;;;;1.85;0.50;;;18.20;71.90;;;;;;5027399;28;45152;-75
2023/01/11 10:44:30;;;;;;;1.70;0.40;;;18.20;71.90;;;;;;5027595;28;45475;-75
2023/01/11 10:46:59;;;;;;;1.08;0.57;;;18.20;71.90;;;;;;5027883;28;45354;-75
2023/01/11 10:49:35;;;;;;;1.85;0.60;;;18.20;71.90;;;;;;5026784;28;45307;-75
2023/01/11 10:52:12;;;;;;;3.60;0.80;;;18.20;71.90;;;;;;5027365;28;45170;-75
2023/01/11 10:54:44;;;;;;;2.10;0.60;;;18.20;71.80;;;;;;5024651;28;45106;-75
2023/01/11 10:57:21;;;;;;;2.20;0.68;;;18.20;71.90;;;;;;5027507;28;45278;-75
2023/01/11 11:03:42;;;;;;;0.75;0.38;;;18.20;71.80;;;;;;5024125;28;45248;-75
2023/01/11 11:06:17;;;;;;;1.40;0.50;;;18.20;71.70;;;;;;5027313;28;45119;-75
2023/01/11 11:08:51;;;;;;;2.50;0.90;;;18.20;71.40;;;;;;5026757;28;45124;-75
2023/01/11 11:11:21;;;;;;;1.88;0.55;;;18.20;71.40;;;;;;5026523;28;45645;-75
2023/01/11 11:13:54;;;;;;;1.88;0.73;;;18.20;71.20;;;;;;5023849;28;45209;-75
2023/01/11 11:16:35;;;;;;;1.38;0.47;;;18.20;71.10;;;;;;5026782;28;45155;-75
2023/01/11 11:22:25;;;;;;;3.42;0.80;;;18.20;71.00;;;;;;5023745;28;45187;-75
2023/01/11 11:24:59;;;;;;;1.95;0.70;;;18.10;70.80;;;;;;5026647;28;45282;-74
2023/01/11 11:27:30;;;;;;;3.72;0.70;;;18.10;70.80;;;;;;5027267;28;45163;-74
2023/01/11 11:29:57;;;;;;;1.70;0.65;;;18.10;70.50;;;;;;5026838;28;45476;-74
2023/01/11 11:32:28;;;;;;;2.50;0.65;;;18.10;70.50;;;;;;5026281;28;45508;-75
2023/01/11 11:34:56;;;;;;;1.55;0.60;;;18.20;70.60;;;;;;5027004;28;45125;-74
2023/01/11 11:37:31;;;;;;;2.67;0.90;;;18.20;70.60;;;;;;5026299;28;45228;-73
2023/01/11 11:39:58;;;;;;;2.85;0.68;;;18.10;70.60;;;;;;5023755;28;45277;-73
2023/01/11 11:42:26;;;;;;;2.53;0.77;;;18.20;70.80;;;;;;5026044;28;46470;-73
2023/01/11 11:45:15;;;;;;;2.60;0.77;;;18.10;70.70;;;;;;5026260;28;45359;-73
2023/01/11 11:47:43;;;;;;;3.10;0.80;;;18.10;70.80;;;;;;5025372;28;45215;-73
2023/01/11 11:50:24;;;;;;;1.15;0.65;;;18.10;71.00;;;;;;5026188;28;45317;-73
2023/01/11 11:56:23;;;;;;;3.20;0.63;;;18.10;71.20;;;;;;5023248;28;45105;-73
2023/01/11 11:58:50;;;;;;;3.53;0.80;;;18.00;71.20;;;;;;5026827;28;45195;-73
2023/01/11 12:01:24;;;;;;;5.07;1.27;;;18.00;71.20;;;;;;5026412;28;45594;-73
2023/01/11 12:07:15;;;;;;;2.75;1.00;;;18.10;71.20;;;;;;5023180;28;45089;-73
2023/01/11 12:09:47;;;;;;;29.90;2.42;;;18.10;71.00;;;;;;5025908;28;45286;-74
2023/01/11 12:12:21;;;;;;;7.88;0.90;;;18.10;71.20;;;;;;5026511;28;45116;-74
2023/01/11 12:15:18;;;;;;;4.15;0.65;;;18.10;71.00;;;;;;5026014;28;47498;-74
2023/01/11 12:17:45;;;;;;;4.05;0.85;;;18.20;71.10;;;;;;5025479;28;45252;-74
2023/01/11 12:20:28;;;;;;;3.35;0.85;;;18.20;71.00;;;;;;5025868;28;45253;-74
2023/01/11 12:23:11;;;;;;;3.60;0.70;;;18.20;70.80;;;;;;5026113;28;45370;-74
2023/01/11 12:25:58;;;;;;;3.28;0.60;;;18.20;70.70;;;;;;5025818;28;45445;-74
2023/01/11 12:28:33;;;;;;;2.92;0.70;;;18.20;70.70;;;;;;5026016;28;45215;-74
2023/01/11 12:31:08;;;;;;;3.50;0.82;;;18.20;70.50;;;;;;5022912;28;45222;-74
2023/01/11 12:33:45;;;;;;;2.65;0.80;;;18.20;70.30;;;;;;5026058;28;45536;-74
2023/01/11 12:36:18;;;;;;;3.22;0.75;;;18.20;70.30;;;;;;5026045;28;47328;-75
2023/01/11 12:38:59;;;;;;;2.80;0.70;;;18.20;70.10;;;;;;5025790;28;46168;-75
2023/01/11 12:41:51;;;;;;;1.77;0.85;;;18.20;70.30;;;;;;5025907;28;45313;-75
2023/01/11 12:44:34;;;;;;;2.17;0.80;;;18.20;70.40;;;;;;5025914;28;45798;-75
2023/01/11 12:50:26;;;;;;;4.35;0.90;;;18.20;70.10;;;;;;5022835;28;45127;-75
2023/01/11 12:53:09;;;;;;;1.80;0.80;;;18.20;70.30;;;;;;5027696;28;45305;-75
2023/01/11 12:56:03;;;;;;;3.28;0.75;;;18.20;70.40;;;;;;5025634;28;45440;-75
2023/01/11 12:58:38;;;;;;;2.75;0.80;;;18.20;70.20;;;;;;5024566;28;46431;-75
2023/01/11 13:01:23;;;;;;;2.42;0.52;;;18.20;70.00;;;;;;5029120;28;45919;-75
2023/01/11 13:04:16;;;;;;;4.35;0.90;;;18.20;70.10;;;;;;5029279;28;45213;-75
2023/01/11 13:06:48;;;;;;;1.85;0.63;;;18.20;69.90;;;;;;5019863;28;45073;-75
2023/01/11 13:09:29;;;;;;;5.38;1.27;;;18.30;70.00;;;;;;5028585;28;46590;-75
2023/01/11 13:12:00;;;;;;;7.03;0.88;;;18.30;70.00;;;;;;5028917;28;46284;-75
2023/01/11 13:15:00;;;;;;;2.83;0.60;;;18.20;69.70;;;;;;5028927;28;45123;-75
2023/01/11 13:17:37;;;;;;;2.75;0.70;;;18.30;69.60;;;;;;5028433;28;45496;-75
2023/01/11 13:20:21;;;;;;;2.70;0.80;;;18.30;69.50;;;;;;5028696;28;47050;-75
2023/01/11 13:22:53;;;;;;;1.88;0.63;;;18.30;69.40;;;;;;5028716;28;46271;-75
2023/01/11 13:25:23;;;;;;;3.97;0.80;;;18.30;69.30;;;;;;5028684;28;45128;-75
2023/01/11 13:27:52;;;;;;;3.97;1.10;;;18.30;69.20;;;;;;5028730;28;45553;-75
2023/01/11 13:30:23;;;;;;;2.78;0.73;;;18.30;69.10;;;;;;5028502;28;45180;-75
2023/01/11 13:32:55;;;;;;;3.78;1.00;;;18.30;69.00;;;;;;5028864;28;45167;-75
2023/01/11 13:35:31;;;;;;;2.75;0.80;;;18.30;68.70;;;;;;5025749;28;45263;-75
2023/01/11 13:41:22;;;;;;;3.45;1.02;;;18.30;68.10;;;;;;5025289;28;45219;-75
2023/01/11 13:43:55;;;;;;;5.50;0.77;;;18.30;68.50;;;;;;5028222;28;45233;-74
2023/01/11 13:46:41;;;;;;;2.58;0.90;;;18.30;68.50;;;;;;5030419;28;45294;-74
2023/01/11 13:52:46;;;;;;;6.55;1.27;;;18.20;67.80;;;;;;5025079;28;45593;-74
2023/01/11 13:55:18;;;;;;;2.17;0.70;;;18.20;68.00;;;;;;5028036;28;45096;-73
2023/01/11 13:57:52;;;;;;;4.47;1.00;;;18.20;68.20;;;;;;5027963;28;45199;-74
2023/01/11 14:00:23;;;;;;;5.97;1.10;;;18.10;68.20;;;;;;5028432;28;45420;-73
2023/01/11 14:02:54;;;;;;;3.30;1.02;;;18.10;68.30;;;;;;5024858;28;46096;-73
2023/01/11 14:05:22;;;;;;;3.45;1.15;;;18.10;68.50;;;;;;5027829;28;45333;-73
2023/01/11 14:08:09;;;;;;;3.58;1.02;;;18.00;68.70;;;;;;5027805;28;45282;-72
2023/01/11 14:17:49;;;;;;;2.55;0.90;;;18.00;68.60;;;;;;5025698;28;45315;-73
2023/01/11 14:20:22;;;;;;;5.28;1.20;;;18.00;68.70;;;;;;5020260;28;45214;-73
2023/01/11 14:22:59;;;;;;;2.78;1.05;;;18.00;68.50;;;;;;5027736;28;45242;-73
2023/01/11 14:25:30;;;;;;;1.88;0.70;;;18.10;68.50;;;;;;5027342;28;45388;-73
2023/01/11 14:28:19;;;;;;;4.90;1.42;;;18.10;68.50;;;;;;5027423;28;45138;-74
2023/01/11 14:31:28;;;;;;;4.47;1.13;;;18.10;68.70;;;;;;5027007;28;45424;-77
2023/01/11 14:34:31;;;;;;;7.78;1.33;;;18.30;72.50;;;;;;5015386;28;45638;-75
2023/01/11 14:40:36;;;;;;;1.90;0.90;;;18.20;70.90;;;;;;4983295;28;45411;-76
2023/01/11 14:43:46;;;;;;;3.88;1.10;;;18.20;70.80;;;;;;4986462;28;45229;-76
2023/01/11 14:46:40;;;;;;;6.57;1.45;;;18.20;71.40;;;;;;4963886;28;45372;-76
2023/01/11 14:49:18;;;;;;;3.17;1.08;;;18.10;71.60;;;;;;4966665;28;47569;-76
2023/01/11 14:51:55;;;;;;;5.28;1.00;;;18.10;72.00;;;;;;5009224;28;45205;-76
2023/01/11 14:58:01;;;;;;;3.47;1.17;;;18.10;72.60;;;;;;5024360;28;45187;-76
2023/01/11 15:01:08;;;;;;;2.90;0.88;;;18.10;72.90;;;;;;5026980;28;47941;-76
2023/01/11 15:03:45;;;;;;;2.58;0.65;;;18.10;73.10;;;;;;5026975;28;45338;-75
2023/01/11 15:06:15;;;;;;;4.22;0.90;;;18.10;73.50;;;;;;5027173;28;45276;-75
2023/01/11 15:08:45;;;;;;;3.75;1.20;;;18.00;73.60;;;;;;5027375;28;45406;-75